Ship Status Report: callsign BATFR22

sailwx.info

Track history (hours):
 
Tides and Currents Weather Stations Pressure Air Temp Water Temp Dewpoint Dewpoint Depression Visibility Wind Speed Wind Dir Waves Ship Positions

Callsign BATFR22 (name unknown)

Last reported at 2017-Apr-24 20:00 UTC. Time now 2017-Apr-24 20:48 UTC.
Position N 42°54' E 005°48'.

Wind from 120 at 15 knots

Barometer 1017.0 mb
Water temperature 15.4 ° C

Date/timePositionNaut miles runAvg speedWind from/ knotsBaromVisibWave heightAir tempDewpointWater temp
2017-Apr-24 20:00N 42°54' E 005°48'1817.8 120 / 151017.0 15.4
2017-Apr-24 19:00N 43°06' E 005°30'1514.8 140 / 181016.7 15.4
2017-Apr-24 18:00N 43°18' E 005°18'0 0.0 180 / 171016.1 14.7
2017-Apr-23 05:00N 43°18' E 005°18'2020.0 010 / 191016.1 14.4
2017-Apr-23 04:00N 43°00' E 005°30'1918.6 310 / 231015.6 14.9
2017-Apr-23 03:00N 42°54' E 005°54'1918.6 290 / 241015.7 14.9
2017-Apr-23 02:00N 42°48' E 006°18'1514.9 260 / 321016.0 15.2
2017-Apr-23 01:00N 42°36' E 006°30'1514.6 260 / 311017.2 15.2
2017-Apr-23 00:00N 42°30' E 006°48'1514.6 250 / 291018.2 14.9
2017-Apr-22 23:00N 42°24' E 007°06'1514.6 250 / 281019.0 14.7
2017-Apr-22 22:00N 42°18' E 007°24'1817.9 250 / 251020.1 15.2
2017-Apr-22 21:00N 42°06' E 007°42'1514.7 250 / 231021.1 15.4
2017-Apr-22 20:00N 42°00' E 008°00'1514.7 250 / 181021.8 15.9
2017-Apr-22 19:00N 41°54' E 008°18'1818.0 270 / 101022.2 16.2
2017-Apr-22 18:00N 41°42' E 008°36'1313.4 310 / 121022.4 16.2
2017-Apr-22 17:00N 41°42' E 008°54'9 0.7 270 / 151022.7 15.9
2017-Apr-22 04:00N 41°42' E 008°42'1918.9 120 / 61026.8 16.0
2017-Apr-22 03:00N 41°48' E 008°18'1818.0 270 / 61027.1 15.7
2017-Apr-22 02:00N 42°00' E 008°00'1918.8 250 / 101027.2 15.9
2017-Apr-22 01:00N 42°06' E 007°36'1817.9 260 / 151027.2 15.4
2017-Apr-22 00:00N 42°18' E 007°18'1514.6 270 / 201027.4 14.9
2017-Apr-21 23:00N 42°24' E 007°00'2121.4 270 / 211027.5 14.9
2017-Apr-21 22:00N 42°36' E 006°36'1514.5 270 / 211027.7 14.9
2017-Apr-21 21:00N 42°42' E 006°18'2121.3 270 / 221027.9 15.0
2017-Apr-21 20:00N 42°54' E 005°54'2121.3 260 / 161028.1 15.2
2017-Apr-21 19:00N 43°06' E 005°30'1514.8 250 / 121028.0 14.4
2017-Apr-21 18:00N 43°18' E 005°18'0 0.0 240 / 121027.6 14.4
2017-Apr-21 05:00N 43°18' E 005°18'1312.8 080 / 91026.5 13.9
2017-Apr-21 04:00N 43°06' E 005°24'1918.5 160 / 91026.0 13.9
2017-Apr-21 03:00N 43°00' E 005°48'2121.3 230 / 21026.1 15.2
2017-Apr-21 02:00N 42°48' E 006°12'2121.3 260 / 61026.1 15.4
2017-Apr-21 01:00N 42°36' E 006°36'1514.6 280 / 91026.1 15.0
2017-Apr-21 00:00N 42°30' E 006°54'1514.6 260 / 101026.4 14.5
2017-Apr-20 23:00N 42°24' E 007°12'1918.7 310 / 141026.4 14.7
2017-Apr-20 22:00N 42°18' E 007°36'1817.9 330 / 111026.7 15.4
2017-Apr-20 21:00N 42°06' E 007°54'1818.0 350 / 111026.5 15.7
2017-Apr-20 20:00N 41°54' E 008°12'1514.7 340 / 111025.8 15.9
2017-Apr-20 19:00N 41°48' E 008°30'1918.9 220 / 71025.0 16.0
2017-Apr-20 18:00N 41°42' E 008°54'0 0.0 150 / 71024.5 16.2
2017-Apr-20 16:00N 41°42' E 008°54'2020.1 110 / 191024.1 16.4
2017-Apr-20 15:00N 41°24' E 008°42'2020.1 060 / 231023.4 16.2
2017-Apr-20 14:00N 41°06' E 008°30'8 1.5 060 / 281022.7 15.9
2017-Apr-20 09:00N 41°00' E 008°24'2020.1 060 / 191023.0 16.0
2017-Apr-20 08:00N 41°18' E 008°36'1312.8 080 / 161022.3 16.0
2017-Apr-20 07:00N 41°30' E 008°42'13 4.3 030 / 41022.1 16.0
2017-Apr-20 04:00N 41°42' E 008°48'1514.7 080 / 161020.6 15.9
2017-Apr-20 03:00N 41°48' E 008°30'1918.9 120 / 111020.2 15.7
2017-Apr-20 02:00N 41°54' E 008°06'1818.0 120 / 161020.2 15.7
2017-Apr-20 01:00N 42°06' E 007°48'1514.6 1020.1 15.4
2017-Apr-20 00:00N 42°12' E 007°30'1514.6 020 / 191020.3 15.4
2017-Apr-19 23:00N 42°18' E 007°12'1817.9 060 / 121021.1 14.7
2017-Apr-19 22:00N 42°30' E 006°54'1514.6 190 / 171020.3 15.4
2017-Apr-19 21:00N 42°36' E 006°36'2121.3 190 / 241018.7 15.0
2017-Apr-19 20:00N 42°48' E 006°12'1414.5 310 / 171018.7 15.0
2017-Apr-19 19:00N 42°54' E 005°54'1414.5 310 / 211018.0 14.5
2017-Apr-19 18:00N 43°00' E 005°36'20 1.5 320 / 231018.0 14.2
2017-Apr-19 05:00N 43°18' E 005°24'1312.8 020 / 121018.6 14.0
2017-Apr-19 04:00N 43°06' E 005°30'1414.5 340 / 141017.4 13.9
2017-Apr-19 03:00N 43°00' E 005°48'1918.6 150 / 81017.3 14.2
2017-Apr-19 02:00N 42°54' E 006°12'1918.6 080 / 241017.1 14.4
2017-Apr-19 01:00N 42°48' E 006°36'2121.3 070 / 291016.5 15.2
2017-Apr-19 00:00N 42°36' E 007°00'1514.9 060 / 411014.7 14.7
2017-Apr-18 23:00N 42°24' E 007°12'1110.7 040 / 431013.1 15.0
2017-Apr-18 22:00N 42°18' E 007°24'1817.9 060 / 321013.4 15.2
2017-Apr-18 21:00N 42°06' E 007°42'1514.7 050 / 351011.8 16.0
2017-Apr-18 20:00N 42°00' E 008°00'1514.7 040 / 441009.9 16.5
2017-Apr-18 19:00N 41°54' E 008°18'1818.0 360 / 131009.3 16.5
2017-Apr-18 18:00N 41°42' E 008°36'1313.4 320 / 91008.7 16.9
2017-Apr-18 17:00N 41°42' E 008°54'13 1.0 1008.6 17.5
2017-Apr-18 04:00N 41°42' E 008°36'1514.7 140 / 141010.5 16.9
2017-Apr-18 03:00N 41°48' E 008°18'1818.0 200 / 111010.6 16.4
2017-Apr-18 02:00N 42°00' E 008°00'1514.7 250 / 191010.5 16.7
2017-Apr-18 01:00N 42°06' E 007°42'2121.5 280 / 211011.0 16.0
2017-Apr-18 00:00N 42°18' E 007°18'1514.6 280 / 231011.3 15.4
2017-Apr-17 23:00N 42°24' E 007°00'1817.9 280 / 291011.2 15.2
2017-Apr-17 22:00N 42°36' E 006°42'1918.6 280 / 291012.0 15.9
2017-Apr-17 21:00N 42°42' E 006°18'1817.8 270 / 241012.7 15.2
2017-Apr-17 20:00N 42°54' E 006°00'1918.6 280 / 271013.1 15.2
2017-Apr-17 19:00N 43°00' E 005°36'1817.8 280 / 231013.5 14.5
2017-Apr-17 18:00N 43°12' E 005°18'6 0.2 290 / 151013.4 14.5
2017-Apr-16 05:00N 43°18' E 005°18'1312.8 320 / 191017.0 14.9
2017-Apr-16 04:00N 43°06' E 005°24'1414.5 330 / 451014.8 14.4
2017-Apr-16 03:00N 43°00' E 005°42'1817.6 310 / 311013.6 14.4
2017-Apr-16 02:00N 43°00' E 006°06'1414.5 310 / 211014.2 14.7
2017-Apr-16 01:00N 42°54' E 006°24'1918.6 300 / 261013.7 15.4
2017-Apr-16 00:00N 42°48' E 006°48'1817.6 300 / 151013.8 15.7
2017-Apr-15 23:00N 42°48' E 007°12'1514.5 310 / 51013.3 16.0
2017-Apr-15 22:00N 42°42' E 007°30'1514.9 040 / 211012.7 16.2
2017-Apr-15 21:00N 42°30' E 007°42'1817.9 320 / 251012.2 16.4
2017-Apr-15 20:00N 42°18' E 008°00'2222.4 300 / 211012.8 16.7
2017-Apr-15 19:00N 42°00' E 008°18'1515.0 250 / 81013.8 16.9
2017-Apr-15 18:00N 41°48' E 008°30'11 0.8 310 / 141013.8 17.2
2017-Apr-15 04:00N 41°42' E 008°42'1514.7 100 / 131014.5 16.5
2017-Apr-15 03:00N 41°48' E 008°24'1514.7 160 / 131014.4 16.4
2017-Apr-15 02:00N 41°54' E 008°06'1818.0 190 / 131014.1 16.7
2017-Apr-15 01:00N 42°06' E 007°48'1514.6 210 / 131014.0 16.4
2017-Apr-15 00:00N 42°12' E 007°30'2121.4 240 / 171013.8 16.2
2017-Apr-14 23:00N 42°24' E 007°06'1514.6 260 / 191013.8 15.9
2017-Apr-14 22:00N 42°30' E 006°48'2121.4 240 / 191013.7 16.2
2017-Apr-14 21:00N 42°42' E 006°24'1918.6 260 / 121013.8 16.2
2017-Apr-14 20:00N 42°48' E 006°00'   280 / 71014.0 16.2
Track history (hours):
 
Tides and Currents Weather Stations Pressure Air Temp Water Temp Dewpoint Dewpoint Depression Visibility Wind Speed Wind Dir Waves Ship Positions

Callsign BATFR22 (name unknown)

Last reported at 2017-Apr-24 20:00 UTC. Time now 2017-Apr-24 20:48 UTC.
Position N 42°54' E 005°48'.

Wind from 120 at 15 knots

Barometer 1017.0 mb
Water temperature 15.4 ° C

Date/timePositionNaut miles runAvg speedWind from/ knotsBaromVisibWave heightAir tempDewpointWater temp
2017-Apr-24 20:00N 42°54' E 005°48'1817.8 120 / 151017.0 15.4
2017-Apr-24 19:00N 43°06' E 005°30'1514.8 140 / 181016.7 15.4
2017-Apr-24 18:00N 43°18' E 005°18'0 0.0 180 / 171016.1 14.7
2017-Apr-23 05:00N 43°18' E 005°18'2020.0 010 / 191016.1 14.4
2017-Apr-23 04:00N 43°00' E 005°30'1918.6 310 / 231015.6 14.9
2017-Apr-23 03:00N 42°54' E 005°54'1918.6 290 / 241015.7 14.9
2017-Apr-23 02:00N 42°48' E 006°18'1514.9 260 / 321016.0 15.2
2017-Apr-23 01:00N 42°36' E 006°30'1514.6 260 / 311017.2 15.2
2017-Apr-23 00:00N 42°30' E 006°48'1514.6 250 / 291018.2 14.9
2017-Apr-22 23:00N 42°24' E 007°06'1514.6 250 / 281019.0 14.7
2017-Apr-22 22:00N 42°18' E 007°24'1817.9 250 / 251020.1 15.2
2017-Apr-22 21:00N 42°06' E 007°42'1514.7 250 / 231021.1 15.4
2017-Apr-22 20:00N 42°00' E 008°00'1514.7 250 / 181021.8 15.9
2017-Apr-22 19:00N 41°54' E 008°18'1818.0 270 / 101022.2 16.2
2017-Apr-22 18:00N 41°42' E 008°36'1313.4 310 / 121022.4 16.2
2017-Apr-22 17:00N 41°42' E 008°54'9 0.7 270 / 151022.7 15.9
2017-Apr-22 04:00N 41°42' E 008°42'1918.9 120 / 61026.8 16.0
2017-Apr-22 03:00N 41°48' E 008°18'1818.0 270 / 61027.1 15.7
2017-Apr-22 02:00N 42°00' E 008°00'1918.8 250 / 101027.2 15.9
2017-Apr-22 01:00N 42°06' E 007°36'1817.9 260 / 151027.2 15.4
2017-Apr-22 00:00N 42°18' E 007°18'1514.6 270 / 201027.4 14.9
2017-Apr-21 23:00N 42°24' E 007°00'2121.4 270 / 211027.5 14.9
2017-Apr-21 22:00N 42°36' E 006°36'1514.5 270 / 211027.7 14.9
2017-Apr-21 21:00N 42°42' E 006°18'2121.3 270 / 221027.9 15.0
2017-Apr-21 20:00N 42°54' E 005°54'2121.3 260 / 161028.1 15.2
2017-Apr-21 19:00N 43°06' E 005°30'1514.8 250 / 121028.0 14.4
2017-Apr-21 18:00N 43°18' E 005°18'0 0.0 240 / 121027.6 14.4
2017-Apr-21 05:00N 43°18' E 005°18'1312.8 080 / 91026.5 13.9
2017-Apr-21 04:00N 43°06' E 005°24'1918.5 160 / 91026.0 13.9
2017-Apr-21 03:00N 43°00' E 005°48'2121.3 230 / 21026.1 15.2
2017-Apr-21 02:00N 42°48' E 006°12'2121.3 260 / 61026.1 15.4
2017-Apr-21 01:00N 42°36' E 006°36'1514.6 280 / 91026.1 15.0
2017-Apr-21 00:00N 42°30' E 006°54'1514.6 260 / 101026.4 14.5
2017-Apr-20 23:00N 42°24' E 007°12'1918.7 310 / 141026.4 14.7
2017-Apr-20 22:00N 42°18' E 007°36'1817.9 330 / 111026.7 15.4
2017-Apr-20 21:00N 42°06' E 007°54'1818.0 350 / 111026.5 15.7
2017-Apr-20 20:00N 41°54' E 008°12'1514.7 340 / 111025.8 15.9
2017-Apr-20 19:00N 41°48' E 008°30'1918.9 220 / 71025.0 16.0
2017-Apr-20 18:00N 41°42' E 008°54'0 0.0 150 / 71024.5 16.2
2017-Apr-20 16:00N 41°42' E 008°54'2020.1 110 / 191024.1 16.4
2017-Apr-20 15:00N 41°24' E 008°42'2020.1 060 / 231023.4 16.2
2017-Apr-20 14:00N 41°06' E 008°30'8 1.5 060 / 281022.7 15.9
2017-Apr-20 09:00N 41°00' E 008°24'2020.1 060 / 191023.0 16.0
2017-Apr-20 08:00N 41°18' E 008°36'1312.8 080 / 161022.3 16.0
2017-Apr-20 07:00N 41°30' E 008°42'13 4.3 030 / 41022.1 16.0
2017-Apr-20 04:00N 41°42' E 008°48'1514.7 080 / 161020.6 15.9
2017-Apr-20 03:00N 41°48' E 008°30'1918.9 120 / 111020.2 15.7
2017-Apr-20 02:00N 41°54' E 008°06'1818.0 120 / 161020.2 15.7
2017-Apr-20 01:00N 42°06' E 007°48'1514.6 1020.1 15.4
2017-Apr-20 00:00N 42°12' E 007°30'1514.6 020 / 191020.3 15.4
2017-Apr-19 23:00N 42°18' E 007°12'1817.9 060 / 121021.1 14.7
2017-Apr-19 22:00N 42°30' E 006°54'1514.6 190 / 171020.3 15.4
2017-Apr-19 21:00N 42°36' E 006°36'2121.3 190 / 241018.7 15.0
2017-Apr-19 20:00N 42°48' E 006°12'1414.5 310 / 171018.7 15.0
2017-Apr-19 19:00N 42°54' E 005°54'1414.5 310 / 211018.0 14.5
2017-Apr-19 18:00N 43°00' E 005°36'20 1.5 320 / 231018.0 14.2
2017-Apr-19 05:00N 43°18' E 005°24'1312.8 020 / 121018.6 14.0
2017-Apr-19 04:00N 43°06' E 005°30'1414.5 340 / 141017.4 13.9
2017-Apr-19 03:00N 43°00' E 005°48'1918.6 150 / 81017.3 14.2
2017-Apr-19 02:00N 42°54' E 006°12'1918.6 080 / 241017.1 14.4
2017-Apr-19 01:00N 42°48' E 006°36'2121.3 070 / 291016.5 15.2
2017-Apr-19 00:00N 42°36' E 007°00'1514.9 060 / 411014.7 14.7
2017-Apr-18 23:00N 42°24' E 007°12'1110.7 040 / 431013.1 15.0
2017-Apr-18 22:00N 42°18' E 007°24'1817.9 060 / 321013.4 15.2
2017-Apr-18 21:00N 42°06' E 007°42'1514.7 050 / 351011.8 16.0
2017-Apr-18 20:00N 42°00' E 008°00'1514.7 040 / 441009.9 16.5
2017-Apr-18 19:00N 41°54' E 008°18'1818.0 360 / 131009.3 16.5
2017-Apr-18 18:00N 41°42' E 008°36'1313.4 320 / 91008.7 16.9
2017-Apr-18 17:00N 41°42' E 008°54'13 1.0 1008.6 17.5
2017-Apr-18 04:00N 41°42' E 008°36'1514.7 140 / 141010.5 16.9
2017-Apr-18 03:00N 41°48' E 008°18'1818.0 200 / 111010.6 16.4
2017-Apr-18 02:00N 42°00' E 008°00'1514.7 250 / 191010.5 16.7
2017-Apr-18 01:00N 42°06' E 007°42'2121.5 280 / 211011.0 16.0
2017-Apr-18 00:00N 42°18' E 007°18'1514.6 280 / 231011.3 15.4
2017-Apr-17 23:00N 42°24' E 007°00'1817.9 280 / 291011.2 15.2
2017-Apr-17 22:00N 42°36' E 006°42'1918.6 280 / 291012.0 15.9
2017-Apr-17 21:00N 42°42' E 006°18'1817.8 270 / 241012.7 15.2
2017-Apr-17 20:00N 42°54' E 006°00'1918.6 280 / 271013.1 15.2
2017-Apr-17 19:00N 43°00' E 005°36'1817.8 280 / 231013.5 14.5
2017-Apr-17 18:00N 43°12' E 005°18'6 0.2 290 / 151013.4 14.5
2017-Apr-16 05:00N 43°18' E 005°18'1312.8 320 / 191017.0 14.9
2017-Apr-16 04:00N 43°06' E 005°24'1414.5 330 / 451014.8 14.4
2017-Apr-16 03:00N 43°00' E 005°42'1817.6 310 / 311013.6 14.4
2017-Apr-16 02:00N 43°00' E 006°06'1414.5 310 / 211014.2 14.7
2017-Apr-16 01:00N 42°54' E 006°24'1918.6 300 / 261013.7 15.4
2017-Apr-16 00:00N 42°48' E 006°48'1817.6 300 / 151013.8 15.7
2017-Apr-15 23:00N 42°48' E 007°12'1514.5 310 / 51013.3 16.0
2017-Apr-15 22:00N 42°42' E 007°30'1514.9 040 / 211012.7 16.2
2017-Apr-15 21:00N 42°30' E 007°42'1817.9 320 / 251012.2 16.4
2017-Apr-15 20:00N 42°18' E 008°00'2222.4 300 / 211012.8 16.7
2017-Apr-15 19:00N 42°00' E 008°18'1515.0 250 / 81013.8 16.9
2017-Apr-15 18:00N 41°48' E 008°30'11 0.8 310 / 141013.8 17.2
2017-Apr-15 04:00N 41°42' E 008°42'1514.7 100 / 131014.5 16.5
2017-Apr-15 03:00N 41°48' E 008°24'1514.7 160 / 131014.4 16.4
2017-Apr-15 02:00N 41°54' E 008°06'1818.0 190 / 131014.1 16.7
2017-Apr-15 01:00N 42°06' E 007°48'1514.6 210 / 131014.0 16.4
2017-Apr-15 00:00N 42°12' E 007°30'2121.4 240 / 171013.8 16.2
2017-Apr-14 23:00N 42°24' E 007°06'1514.6 260 / 191013.8 15.9
2017-Apr-14 22:00N 42°30' E 006°48'2121.4 240 / 191013.7 16.2
2017-Apr-14 21:00N 42°42' E 006°24'1918.6 260 / 121013.8 16.2
2017-Apr-14 20:00N 42°48' E 006°00'   280 / 71014.0 16.2

Dump ship's entire track history